createdAt,value
2022-12-03T00:02:40.010Z,101253.84
2022-12-03T00:05:48.792Z,101246.53
2022-12-03T00:08:51.959Z,101257.06
2022-12-03T00:11:54.921Z,101262.84
2022-12-03T00:14:58.064Z,101275.13
2022-12-03T00:18:01.140Z,101281.75
2022-12-03T00:21:03.870Z,101282.66
2022-12-03T00:24:07.187Z,101292.22
2022-12-03T00:27:09.731Z,101298.44
2022-12-03T00:30:14.487Z,101294.81
2022-12-03T00:33:17.190Z,101296.81
2022-12-03T00:36:20.356Z,101315.22
2022-12-03T00:39:23.145Z,101294.25
2022-12-03T00:42:26.278Z,101299.44
2022-12-03T00:45:28.974Z,101309.31
2022-12-03T00:48:33.311Z,101311.03
2022-12-03T00:51:36.046Z,101298.78
2022-12-03T00:54:38.882Z,101300.84
2022-12-03T00:57:42.147Z,101295.03
2022-12-03T01:00:45.027Z,101299.34
2022-12-03T01:03:47.800Z,101299.88
2022-12-03T01:06:50.858Z,101304.69
2022-12-03T01:09:53.761Z,101305.38
2022-12-03T01:12:56.651Z,101306.44
2022-12-03T01:15:59.310Z,101306.66
2022-12-03T01:19:03.337Z,101305.69
2022-12-03T01:22:05.998Z,101301.09
2022-12-03T01:25:10.242Z,101299.97
2022-12-03T01:28:12.798Z,101298.91
2022-12-03T01:31:34.231Z,101299.97
2022-12-03T01:34:36.918Z,101303.00
2022-12-03T01:37:39.866Z,101302.78
2022-12-03T01:40:42.758Z,101298.06
2022-12-03T01:43:46.341Z,101291.69
2022-12-03T01:46:50.063Z,101292.50
2022-12-03T01:49:56.892Z,101294.69
2022-12-03T01:53:02.469Z,101310.81
2022-12-03T01:56:05.826Z,101299.78
2022-12-03T01:59:13.708Z,101299.34
2022-12-03T02:02:24.055Z,101298.97
2022-12-03T02:05:29.977Z,101303.44
2022-12-03T02:08:35.414Z,101299.72
2022-12-03T02:11:42.954Z,101299.41
2022-12-03T02:14:47.482Z,101289.62
2022-12-03T02:17:50.751Z,101292.62
2022-12-03T02:21:21.658Z,101292.97
2022-12-03T02:24:40.022Z,101294.78
2022-12-03T02:27:44.435Z,101295.59
2022-12-03T02:30:47.157Z,101287.69
2022-12-03T02:33:50.535Z,101295.16
2022-12-03T02:36:53.159Z,101289.78
2022-12-03T02:40:02.552Z,101293.47
2022-12-03T02:43:06.007Z,101293.94
2022-12-03T02:46:09.036Z,101294.09
2022-12-03T02:49:11.958Z,101301.75
2022-12-03T02:52:15.300Z,101293.41
2022-12-03T02:55:18.466Z,101287.81
2022-12-03T02:58:23.334Z,101289.75
2022-12-03T03:01:26.114Z,101293.88
2022-12-03T03:04:29.312Z,101297.94
2022-12-03T03:07:32.014Z,101295.84
2022-12-03T03:10:37.267Z,101295.16
2022-12-03T03:13:40.347Z,101292.62
2022-12-03T03:16:43.534Z,101293.00
2022-12-03T03:19:46.795Z,101302.19
2022-12-03T03:22:49.779Z,101296.97
2022-12-03T03:26:07.231Z,101302.31
2022-12-03T03:29:10.172Z,101298.06
2022-12-03T03:32:12.887Z,101297.16
2022-12-03T03:35:18.011Z,101306.69
2022-12-03T03:38:22.275Z,101301.47
2022-12-03T03:41:27.886Z,101307.91
2022-12-03T03:44:30.583Z,101308.84
2022-12-03T03:47:33.602Z,101304.97
2022-12-03T03:50:36.843Z,101304.19
2022-12-03T03:53:42.916Z,101301.81
2022-12-03T03:56:45.702Z,101306.06
2022-12-03T03:59:48.569Z,101306.34
2022-12-03T04:02:52.558Z,101308.28
2022-12-03T04:05:55.575Z,101304.09
2022-12-03T04:08:58.286Z,101306.91
2022-12-03T04:12:19.834Z,101305.66
2022-12-03T04:15:23.211Z,101300.84
2022-12-03T04:18:44.510Z,101286.00
2022-12-03T04:22:05.550Z,101296.22
2022-12-03T04:25:28.781Z,101294.16
2022-12-03T04:28:49.866Z,101291.53
2022-12-03T04:32:11.590Z,101294.22
2022-12-03T04:35:33.195Z,101295.34
2022-12-03T04:38:36.517Z,101288.50
2022-12-03T04:41:39.164Z,101293.47
2022-12-03T04:44:42.157Z,101309.59
2022-12-03T04:47:45.110Z,101305.41
2022-12-03T04:50:48.312Z,101293.00
2022-12-03T04:53:51.079Z,101296.16
2022-12-03T04:56:54.103Z,101298.13
2022-12-03T04:59:56.740Z,101306.50
2022-12-03T05:02:59.751Z,101307.59
2022-12-03T05:06:02.433Z,101306.41
2022-12-03T05:09:05.507Z,101305.97
2022-12-03T05:12:08.110Z,101309.44
2022-12-03T05:15:11.613Z,101311.84
2022-12-03T05:18:14.239Z,101320.06
2022-12-03T05:21:17.126Z,101316.44
2022-12-03T05:24:19.724Z,101303.25
2022-12-03T05:27:24.060Z,101303.25
2022-12-03T05:30:27.143Z,101305.50
2022-12-03T05:33:30.194Z,101306.72
2022-12-03T05:36:32.846Z,101309.44
2022-12-03T05:39:35.740Z,101315.75
2022-12-03T05:42:56.937Z,101313.09
2022-12-03T05:45:59.915Z,101327.19
2022-12-03T05:49:05.679Z,101323.22
2022-12-03T05:52:08.518Z,101325.28
2022-12-03T05:55:11.872Z,101320.28
2022-12-03T05:58:14.712Z,101324.22
2022-12-03T06:01:17.252Z,101328.84
2022-12-03T06:04:20.181Z,101323.94
2022-12-03T06:07:22.731Z,101323.12
2022-12-03T06:10:26.653Z,101323.34
2022-12-03T06:13:29.278Z,101327.09
2022-12-03T06:16:32.368Z,101320.56
2022-12-03T06:19:36.199Z,101320.91
2022-12-03T06:22:39.215Z,101326.59
2022-12-03T06:25:41.748Z,101327.00
2022-12-03T06:28:47.629Z,101330.88
2022-12-03T06:31:50.347Z,101328.91
2022-12-03T06:34:53.659Z,101327.66
2022-12-03T06:37:56.390Z,101327.78
2022-12-03T06:40:59.241Z,101333.88
2022-12-03T06:44:01.923Z,101331.75
2022-12-03T06:47:04.869Z,101327.81
2022-12-03T06:50:08.943Z,101339.69
2022-12-03T06:53:11.819Z,101337.28
2022-12-03T06:56:14.431Z,101338.53
2022-12-03T06:59:18.547Z,101333.53
2022-12-03T07:02:21.205Z,101341.38
2022-12-03T07:05:24.095Z,101347.94
2022-12-03T07:08:28.100Z,101347.38
2022-12-03T07:11:33.530Z,101349.59
2022-12-03T07:14:36.078Z,101348.28
2022-12-03T07:17:39.155Z,101348.09
2022-12-03T07:20:41.912Z,101354.56
2022-12-03T07:23:45.015Z,101346.63
2022-12-03T07:26:47.658Z,101359.81
2022-12-03T07:29:50.574Z,101355.31
2022-12-03T07:32:53.437Z,101345.31
2022-12-03T07:35:56.346Z,101348.69
2022-12-03T07:39:01.075Z,101349.38
2022-12-03T07:42:04.138Z,101349.66
2022-12-03T07:45:07.378Z,101349.09
2022-12-03T07:48:10.278Z,101355.00
2022-12-03T07:51:15.421Z,101343.25
2022-12-03T07:54:18.870Z,101352.75
2022-12-03T07:57:21.797Z,101346.81
2022-12-03T08:00:24.718Z,101356.13
2022-12-03T08:03:27.652Z,101351.72
2022-12-03T08:06:30.249Z,101347.91
2022-12-03T08:09:33.200Z,101341.59
2022-12-03T08:12:42.050Z,101346.03
2022-12-03T08:15:45.694Z,101344.88
2022-12-03T08:18:50.121Z,101348.34
2022-12-03T08:21:57.961Z,101341.94
2022-12-03T08:25:06.832Z,101345.87
2022-12-03T08:28:18.886Z,101340.88
2022-12-03T08:31:32.357Z,101339.84
2022-12-03T08:34:41.264Z,101346.13
2022-12-03T08:37:43.886Z,101339.09
2022-12-03T08:40:49.475Z,101334.25
2022-12-03T08:43:52.040Z,101331.87
2022-12-03T08:47:22.274Z,101342.22
2022-12-03T08:50:29.449Z,101348.75
2022-12-03T08:53:38.633Z,101349.47
2022-12-03T08:56:41.695Z,101354.41
2022-12-03T08:59:45.771Z,101354.78
2022-12-03T09:02:52.379Z,101363.22
2022-12-03T09:05:55.204Z,101351.00
2022-12-03T09:09:01.135Z,101353.09
2022-12-03T09:12:06.845Z,101349.53
2022-12-03T09:15:09.915Z,101343.62
2022-12-03T09:18:14.576Z,101356.88
2022-12-03T09:21:17.184Z,101348.41
2022-12-03T09:24:20.215Z,101349.81
2022-12-03T09:27:22.943Z,101350.88
2022-12-03T09:30:25.926Z,101346.22
2022-12-03T09:33:28.563Z,101350.12
2022-12-03T09:36:31.608Z,101346.91
2022-12-03T09:39:34.731Z,101344.16
2022-12-03T09:42:38.168Z,101338.22
2022-12-03T09:45:40.892Z,101335.34
2022-12-03T09:48:43.915Z,101328.66
2022-12-03T09:51:46.840Z,101332.53
2022-12-03T09:54:49.902Z,101319.66
2022-12-03T09:57:57.550Z,101320.38
2022-12-03T10:01:00.568Z,101318.28
2022-12-03T10:04:03.584Z,101303.19
2022-12-03T10:07:06.214Z,101301.06
2022-12-03T10:10:16.652Z,101307.00
2022-12-03T10:13:37.442Z,101297.69
2022-12-03T10:16:41.528Z,101288.88
2022-12-03T10:19:44.794Z,101297.78
2022-12-03T10:22:48.997Z,101289.94
2022-12-03T10:25:54.683Z,101291.94
2022-12-03T10:28:57.602Z,101290.19
2022-12-03T10:32:08.983Z,101288.44
2022-12-03T10:35:15.394Z,101286.03
2022-12-03T10:38:22.487Z,101278.84
2022-12-03T10:41:29.053Z,101281.34
2022-12-03T10:44:31.616Z,101284.59
2022-12-03T10:47:34.646Z,101272.44
2022-12-03T10:50:37.767Z,101271.78
2022-12-03T10:53:41.462Z,101263.97
2022-12-03T10:56:45.305Z,101265.41
2022-12-03T10:59:49.931Z,101268.13
2022-12-03T11:02:56.666Z,101250.31
2022-12-03T11:06:06.159Z,101256.38
2022-12-03T11:09:19.698Z,101257.84
2022-12-03T11:12:23.984Z,101244.25
2022-12-03T11:15:44.545Z,101245.03
2022-12-03T11:18:50.248Z,101246.63
2022-12-03T11:22:05.667Z,101245.16
2022-12-03T11:25:26.892Z,101243.56
2022-12-03T11:28:34.550Z,101235.41
2022-12-03T11:31:45.276Z,101237.25
2022-12-03T11:34:48.892Z,101235.19
2022-12-03T11:37:52.287Z,101231.22
2022-12-03T11:41:15.654Z,101230.53
2022-12-03T11:44:30.687Z,101221.53
2022-12-03T11:47:58.416Z,101225.78
2022-12-03T11:51:01.550Z,101216.75
2022-12-03T11:54:04.227Z,101220.34
2022-12-03T11:57:26.827Z,101215.97
2022-12-03T12:00:30.282Z,101216.47
2022-12-03T12:03:34.412Z,101213.81
2022-12-03T12:06:43.046Z,101205.09
2022-12-03T12:09:55.000Z,101214.13
2022-12-03T12:12:57.819Z,101211.16
2022-12-03T12:16:02.985Z,101209.75
2022-12-03T12:19:30.296Z,101207.09
2022-12-03T12:22:34.091Z,101214.47
2022-12-03T12:25:41.442Z,101208.94
2022-12-03T12:28:44.736Z,101198.84
2022-12-03T12:31:53.770Z,101194.06
2022-12-03T12:35:15.371Z,101192.94
2022-12-03T12:38:24.301Z,101189.03
2022-12-03T12:41:27.301Z,101185.47
2022-12-03T12:44:29.863Z,101184.44
2022-12-03T12:47:36.725Z,101176.72
2022-12-03T12:50:44.267Z,101181.84
2022-12-03T12:53:47.933Z,101163.31
2022-12-03T12:56:50.562Z,101175.00
2022-12-03T12:59:55.476Z,101176.88
2022-12-03T13:03:02.834Z,101172.31
2022-12-03T13:06:06.363Z,101169.75
2022-12-03T13:09:18.493Z,101170.84
2022-12-03T13:12:23.306Z,101171.50
2022-12-03T13:16:08.911Z,101179.84
2022-12-03T13:19:39.614Z,101179.53
2022-12-03T13:22:49.515Z,101173.47
2022-12-03T13:26:08.413Z,101180.91
2022-12-03T13:29:18.812Z,101172.59
2022-12-03T13:32:33.100Z,101166.94
2022-12-03T13:35:36.472Z,101170.94
2022-12-03T13:38:39.446Z,101164.84
2022-12-03T13:42:01.370Z,101161.66
2022-12-03T13:45:16.331Z,101169.19
2022-12-03T13:48:23.308Z,101159.25
2022-12-03T13:51:29.823Z,101160.88
2022-12-03T13:54:39.351Z,101171.63
2022-12-03T13:57:42.311Z,101169.56
2022-12-03T14:00:45.394Z,101155.28
2022-12-03T14:03:49.528Z,101178.69
2022-12-03T14:06:52.174Z,101184.78
2022-12-03T14:09:55.381Z,101174.22
2022-12-03T14:12:58.861Z,101183.69
2022-12-03T14:16:01.754Z,101185.94
2022-12-03T14:19:04.368Z,101192.50
2022-12-03T14:22:09.692Z,101192.69
2022-12-03T14:25:12.307Z,101187.88
2022-12-03T14:28:15.143Z,101194.59
2022-12-03T14:31:17.829Z,101189.34
2022-12-03T14:34:20.753Z,101185.84
2022-12-03T14:37:23.372Z,101189.69
2022-12-03T14:40:27.259Z,101189.06
2022-12-03T14:43:30.055Z,101198.66
2022-12-03T14:46:32.950Z,101201.69
2022-12-03T14:49:35.694Z,101202.47
2022-12-03T14:52:38.694Z,101202.81
2022-12-03T14:55:41.307Z,101199.78
2022-12-03T14:58:44.191Z,101200.84
2022-12-03T15:01:46.936Z,101204.38
2022-12-03T15:04:49.938Z,101203.22
2022-12-03T15:07:52.602Z,101208.62
2022-12-03T15:10:55.654Z,101206.81
2022-12-03T15:13:58.342Z,101212.69
2022-12-03T15:17:01.249Z,101204.97
2022-12-03T15:20:04.331Z,101200.75
2022-12-03T15:23:12.719Z,101207.25
2022-12-03T15:26:16.732Z,101203.00
2022-12-03T15:29:20.592Z,101214.06
2022-12-03T15:32:23.250Z,101206.37
2022-12-03T15:35:26.138Z,101207.28
2022-12-03T15:38:29.157Z,101208.16
2022-12-03T15:41:32.548Z,101210.13
2022-12-03T15:44:35.226Z,101211.22
2022-12-03T15:47:38.796Z,101211.69
2022-12-03T15:50:41.332Z,101217.84
2022-12-03T15:53:44.387Z,101217.78
2022-12-03T15:56:47.074Z,101218.34
2022-12-03T15:59:50.146Z,101215.31
2022-12-03T16:02:53.330Z,101220.37
2022-12-03T16:05:56.290Z,101217.16
2022-12-03T16:08:59.132Z,101211.34
2022-12-03T16:12:02.143Z,101220.97
2022-12-03T16:15:05.196Z,101224.69
2022-12-03T16:18:08.211Z,101221.59
2022-12-03T16:21:10.867Z,101227.00
2022-12-03T16:24:13.937Z,101218.25
2022-12-03T16:27:16.570Z,101224.41
2022-12-03T16:30:19.553Z,101214.56
2022-12-03T16:33:27.311Z,101210.47
2022-12-03T16:36:30.922Z,101210.47
2022-12-03T16:39:33.487Z,101210.63
2022-12-03T16:42:37.395Z,101211.22
2022-12-03T16:45:56.003Z,101208.59
2022-12-03T16:48:59.458Z,101206.47
2022-12-03T16:52:02.295Z,101203.59
2022-12-03T16:55:05.557Z,101211.06
2022-12-03T16:58:08.127Z,101203.41
2022-12-03T17:01:11.529Z,101213.94
2022-12-03T17:04:14.206Z,101204.22
2022-12-03T17:07:17.099Z,101209.87
2022-12-03T17:10:19.861Z,101207.22
2022-12-03T17:13:23.374Z,101208.66
2022-12-03T17:16:26.226Z,101209.25
2022-12-03T17:19:29.447Z,101197.94
2022-12-03T17:22:32.272Z,101191.19
2022-12-03T17:25:35.618Z,101203.72
2022-12-03T17:28:38.298Z,101203.06
2022-12-03T17:31:42.765Z,101200.16
2022-12-03T17:34:45.613Z,101203.06
2022-12-03T17:37:48.504Z,101208.84
2022-12-03T17:40:51.289Z,101209.25
2022-12-03T17:43:54.374Z,101214.06
2022-12-03T17:46:57.018Z,101216.31
2022-12-03T17:50:00.203Z,101209.09
2022-12-03T17:53:05.487Z,101217.53
2022-12-03T17:56:08.394Z,101214.31
2022-12-03T17:59:12.705Z,101217.97
2022-12-03T18:02:15.994Z,101213.75
2022-12-03T18:05:18.941Z,101213.75
2022-12-03T18:08:21.801Z,101214.19
2022-12-03T18:11:25.145Z,101218.59
2022-12-03T18:14:27.977Z,101207.94
2022-12-03T18:17:30.884Z,101207.94
2022-12-03T18:20:33.572Z,101208.75
2022-12-03T18:23:36.660Z,101210.59
2022-12-03T18:26:39.259Z,101207.94
2022-12-03T18:29:42.098Z,101204.34
2022-12-03T18:32:44.702Z,101206.25
2022-12-03T18:35:47.644Z,101207.34
2022-12-03T18:38:53.023Z,101203.72
2022-12-03T18:41:56.001Z,101203.13
2022-12-03T18:44:59.435Z,101217.38
2022-12-03T18:48:02.484Z,101220.13
2022-12-03T18:51:20.046Z,101213.50
2022-12-03T18:54:23.265Z,101215.03
2022-12-03T18:57:25.906Z,101221.88
2022-12-03T19:00:29.057Z,101213.03
2022-12-03T19:03:32.531Z,101215.22
2022-12-03T19:06:35.726Z,101201.22
2022-12-03T19:09:39.711Z,101217.78
2022-12-03T19:12:42.795Z,101213.94
2022-12-03T19:15:46.409Z,101214.13
2022-12-03T19:18:49.331Z,101220.06
2022-12-03T19:21:52.252Z,101222.50
2022-12-03T19:24:55.965Z,101224.09
2022-12-03T19:27:58.994Z,101224.09
2022-12-03T19:31:04.909Z,101215.28
2022-12-03T19:34:07.527Z,101222.31
2022-12-03T19:37:10.602Z,101219.00
2022-12-03T19:40:15.111Z,101222.19
2022-12-03T19:43:18.373Z,101227.00
2022-12-03T19:46:22.867Z,101227.00
2022-12-03T19:49:26.590Z,101223.50
2022-12-03T19:52:29.736Z,101231.31
2022-12-03T19:55:34.789Z,101226.91
2022-12-03T19:58:39.347Z,101207.56
2022-12-03T20:01:43.590Z,101224.19
2022-12-03T20:04:46.862Z,101218.78
2022-12-03T20:07:49.959Z,101219.78
2022-12-03T20:11:17.550Z,101212.66
2022-12-03T20:14:20.331Z,101214.06
2022-12-03T20:17:23.542Z,101216.66
2022-12-03T20:20:27.704Z,101217.56
2022-12-03T20:23:30.799Z,101219.87
2022-12-03T20:26:34.233Z,101215.53
2022-12-03T20:29:37.411Z,101211.22
2022-12-03T20:32:45.155Z,101214.94
2022-12-03T20:35:55.374Z,101210.84
2022-12-03T20:39:05.614Z,101213.25
2022-12-03T20:42:10.678Z,101208.34
2022-12-03T20:45:13.548Z,101214.00
2022-12-03T20:48:16.667Z,101207.19
2022-12-03T20:51:22.391Z,101205.34
2022-12-03T20:54:25.483Z,101207.25
2022-12-03T20:57:28.222Z,101223.84
2022-12-03T21:00:31.434Z,101221.88
2022-12-03T21:03:34.299Z,101220.72
2022-12-03T21:06:37.959Z,101222.03
2022-12-03T21:09:40.843Z,101230.47
2022-12-03T21:12:44.440Z,101234.09
2022-12-03T21:15:47.411Z,101233.56
2022-12-03T21:18:50.526Z,101233.56
2022-12-03T21:21:53.392Z,101238.38
2022-12-03T21:24:56.420Z,101240.53
2022-12-03T21:27:59.196Z,101238.41
2022-12-03T21:31:08.512Z,101246.19
2022-12-03T21:34:12.952Z,101249.59
2022-12-03T21:37:16.024Z,101251.88
2022-12-03T21:40:19.400Z,101240.22
2022-12-03T21:43:23.011Z,101253.19
2022-12-03T21:47:12.408Z,101251.81
2022-12-03T21:49:49.849Z,101243.69
2022-12-03T21:52:52.771Z,101240.63
2022-12-03T21:55:55.622Z,101239.44
2022-12-03T21:58:58.225Z,101241.13
2022-12-03T22:02:01.247Z,101234.91
2022-12-03T22:05:04.511Z,101239.44
2022-12-03T22:08:07.517Z,101241.56
2022-12-03T22:11:13.713Z,101229.31
2022-12-03T22:14:16.328Z,101238.13
2022-12-03T22:17:19.382Z,101222.06
2022-12-03T22:20:22.068Z,101227.31
2022-12-03T22:23:24.971Z,101215.19
2022-12-03T22:26:27.580Z,101214.56
2022-12-03T22:29:30.887Z,101208.22
2022-12-03T22:32:33.432Z,101220.37
2022-12-03T22:35:36.258Z,101215.88
2022-12-03T22:38:39.309Z,101210.25
2022-12-03T22:41:42.232Z,101210.31
2022-12-03T22:44:44.922Z,101205.69
2022-12-03T22:47:47.738Z,101205.34
2022-12-03T22:50:52.207Z,101205.59
2022-12-03T22:53:58.182Z,101201.38
2022-12-03T22:57:00.802Z,101193.94
2022-12-03T23:00:10.396Z,101185.66
2022-12-03T23:03:13.047Z,101201.31
2022-12-03T23:06:16.447Z,101194.78
2022-12-03T23:09:19.092Z,101194.06
2022-12-03T23:12:22.425Z,101192.75
2022-12-03T23:15:24.972Z,101189.66
2022-12-03T23:18:27.852Z,101197.47
2022-12-03T23:21:33.235Z,101194.91
2022-12-03T23:24:36.436Z,101188.06
2022-12-03T23:27:39.059Z,101195.25
2022-12-03T23:30:41.966Z,101194.31
2022-12-03T23:33:44.770Z,101191.12
2022-12-03T23:36:47.651Z,101199.41
2022-12-03T23:39:50.714Z,101189.63
2022-12-03T23:42:53.701Z,101191.34
2022-12-03T23:46:03.900Z,101194.69
2022-12-03T23:49:07.079Z,101182.22
2022-12-03T23:52:09.607Z,101194.59
2022-12-03T23:55:12.515Z,101175.94
2022-12-03T23:58:15.505Z,101173.50
